Time;durP1;ratioP1;P1;durP2;ratioP2;P2;SDS_P1;SDS_P2;PMS_P1;PMS_P2;Temp;Humidity;BMP_temperature;BMP_pressure;BME280_temperature;BME280_humidity;BME280_pressure;Samples;Min_cycle;Max_cycle;Signal;HPM_P1;HPM_P2
2024/01/22 00:02:22;;;;;;;31.57;23.50;;;;;;;;;;5128214;28;20673;-79
2024/01/22 00:04:50;;;;;;;26.70;17.20;;;;;;;;;;5128212;28;20199;-79
2024/01/22 00:07:17;;;;;;;61.93;36.60;;;;;;;;;;5129059;28;20199;-79
2024/01/22 00:09:44;;;;;;;41.53;25.00;;;;;;;;;;5128001;28;20227;-79
2024/01/22 00:12:10;;;;;;;48.47;22.60;;;;;;;;;;5128037;28;20203;-80
2024/01/22 00:14:37;;;;;;;15.87;8.30;;;;;;;;;;5127860;28;20196;-78
2024/01/22 00:17:04;;;;;;;13.87;8.90;;;;;;;;;;5128080;28;20210;-79
2024/01/22 00:19:31;;;;;;;18.80;13.07;;;;;;;;;;5114453;28;20226;-79
2024/01/22 00:21:59;;;;;;;11.53;7.67;;;;;;;;;;5128453;28;20592;-79
2024/01/22 00:24:26;;;;;;;8.73;4.60;;;;;;;;;;5127959;28;20199;-80
2024/01/22 00:26:56;;;;;;;4.73;3.47;;;;;;;;;;5127764;28;20704;-80
2024/01/22 00:29:23;;;;;;;7.07;3.57;;;;;;;;;;5127119;28;20230;-80
2024/01/22 00:31:49;;;;;;;4.93;4.20;;;;;;;;;;5128044;28;20210;-80
2024/01/22 00:34:16;;;;;;;5.83;4.60;;;;;;;;;;5127741;28;20202;-79
2024/01/22 00:36:43;;;;;;;6.80;4.97;;;;;;;;;;5127890;28;20214;-80
2024/01/22 00:39:11;;;;;;;6.70;4.37;;;;;;;;;;5127663;28;20199;-80
2024/01/22 00:41:38;;;;;;;4.80;3.83;;;;;;;;;;5114943;28;20200;-80
2024/01/22 00:44:05;;;;;;;3.37;3.03;;;;;;;;;;5113844;28;20199;-80
2024/01/22 00:46:31;;;;;;;4.87;4.10;;;;;;;;;;5113709;28;20210;-80
2024/01/22 00:48:58;;;;;;;4.70;4.17;;;;;;;;;;5113578;28;20274;-80
2024/01/22 00:51:25;;;;;;;4.87;4.30;;;;;;;;;;5113858;28;20638;-81
2024/01/22 00:53:52;;;;;;;5.37;4.03;;;;;;;;;;5104182;28;20215;-81
2024/01/22 00:56:20;;;;;;;4.90;4.30;;;;;;;;;;5110207;28;20297;-81
2024/01/22 00:58:47;;;;;;;5.23;4.73;;;;;;;;;;5113857;28;20199;-80
2024/01/22 01:01:14;;;;;;;5.97;4.37;;;;;;;;;;5113559;28;20202;-81
2024/01/22 01:03:41;;;;;;;5.90;5.27;;;;;;;;;;5094845;28;20218;-81
2024/01/22 01:06:08;;;;;;;10.07;6.57;;;;;;;;;;5113770;28;20199;-81
2024/01/22 01:08:35;;;;;;;10.37;6.30;;;;;;;;;;5113678;28;20203;-80
2024/01/22 01:11:02;;;;;;;9.43;5.53;;;;;;;;;;5113175;28;20200;-81
2024/01/22 01:13:30;;;;;;;7.23;4.40;;;;;;;;;;5113451;28;20241;-81
2024/01/22 01:15:57;;;;;;;5.87;4.20;;;;;;;;;;5113832;28;20196;-81
2024/01/22 01:18:23;;;;;;;4.97;4.43;;;;;;;;;;5113081;28;20615;-81
2024/01/22 01:20:50;;;;;;;4.07;3.67;;;;;;;;;;5113331;28;20562;-80
2024/01/22 01:23:17;;;;;;;4.13;3.00;;;;;;;;;;5113336;28;20693;-81
2024/01/22 01:25:44;;;;;;;3.30;3.00;;;;;;;;;;5113009;28;20685;-81
2024/01/22 01:28:11;;;;;;;4.13;3.73;;;;;;;;;;5113213;28;20242;-80
2024/01/22 01:30:39;;;;;;;3.23;2.93;;;;;;;;;;5113207;28;20231;-81
2024/01/22 01:33:06;;;;;;;5.50;3.37;;;;;;;;;;5113017;28;20207;-81
2024/01/22 01:35:33;;;;;;;3.90;3.47;;;;;;;;;;5112682;28;20214;-81
2024/01/22 01:37:59;;;;;;;2.70;2.27;;;;;;;;;;5112664;28;20208;-81
2024/01/22 01:40:26;;;;;;;3.33;3.03;;;;;;;;;;5112774;28;20597;-81
2024/01/22 01:42:55;;;;;;;3.10;2.80;;;;;;;;;;5112624;28;20687;-81
2024/01/22 01:45:22;;;;;;;4.67;3.43;;;;;;;;;;5098900;28;20207;-80
2024/01/22 01:47:51;;;;;;;3.60;3.03;;;;;;;;;;5113169;28;20207;-81
2024/01/22 01:50:18;;;;;;;3.53;3.23;;;;;;;;;;5113081;28;20231;-81
2024/01/22 01:52:46;;;;;;;6.87;5.90;;;;;;;;;;5111537;28;20208;-81
2024/01/22 01:55:12;;;;;;;11.17;6.43;;;;;;;;;;5112532;28;20214;-81
2024/01/22 01:57:40;;;;;;;16.50;8.73;;;;;;;;;;5112389;28;20204;-81
2024/01/22 02:00:07;;;;;;;11.97;8.00;;;;;;;;;;5113003;28;20200;-80
2024/01/22 02:02:34;;;;;;;16.10;9.73;;;;;;;;;;5112161;28;20276;-80
2024/01/22 02:05:04;;;;;;;9.70;7.33;;;;;;;;;;5112239;28;20203;-81
2024/01/22 02:07:31;;;;;;;7.53;5.33;;;;;;;;;;5112040;28;20213;-81
2024/01/22 02:09:58;;;;;;;7.60;6.70;;;;;;;;;;5112506;28;20246;-81
2024/01/22 02:12:25;;;;;;;12.17;7.30;;;;;;;;;;5111507;28;20214;-81
2024/01/22 02:14:51;;;;;;;7.03;6.07;;;;;;;;;;5112743;28;20199;-80
2024/01/22 02:17:18;;;;;;;9.57;6.03;;;;;;;;;;5112117;28;20276;-81
2024/01/22 02:19:46;;;;;;;40.03;22.50;;;;;;;;;;5112084;28;20207;-81
2024/01/22 02:22:15;;;;;;;57.93;25.33;;;;;;;;;;5111802;28;20215;-82
2024/01/22 02:24:43;;;;;;;36.97;14.50;;;;;;;;;;5112028;28;20248;-81
2024/01/22 02:27:10;;;;;;;8.07;5.00;;;;;;;;;;5112005;28;20199;-81
2024/01/22 02:29:37;;;;;;;14.00;7.97;;;;;;;;;;5101682;28;20247;-81
2024/01/22 02:32:04;;;;;;;54.03;21.03;;;;;;;;;;5105030;28;20673;-81
2024/01/22 02:34:31;;;;;;;21.70;10.00;;;;;;;;;;5101591;28;20199;-80
2024/01/22 02:36:57;;;;;;;31.70;14.70;;;;;;;;;;5111822;28;20196;-81
2024/01/22 02:39:24;;;;;;;48.80;24.30;;;;;;;;;;5111755;28;20693;-81
2024/01/22 02:41:52;;;;;;;26.97;14.30;;;;;;;;;;5111693;28;20207;-80
2024/01/22 02:44:19;;;;;;;13.83;8.67;;;;;;;;;;5111705;28;20203;-80
2024/01/22 02:46:46;;;;;;;11.77;5.87;;;;;;;;;;5111770;28;20648;-80
2024/01/22 02:49:13;;;;;;;9.53;5.90;;;;;;;;;;5111109;28;20203;-81
2024/01/22 02:51:43;;;;;;;8.10;5.27;;;;;;;;;;5111414;28;20200;-80
2024/01/22 02:54:09;;;;;;;7.60;5.23;;;;;;;;;;5111291;28;20204;-80
2024/01/22 02:56:36;;;;;;;8.20;5.47;;;;;;;;;;5111226;28;20196;-81
2024/01/22 02:59:04;;;;;;;6.20;5.10;;;;;;;;;;5098748;28;20211;-81
2024/01/22 03:01:31;;;;;;;5.43;3.43;;;;;;;;;;5110941;28;20252;-81
2024/01/22 03:03:58;;;;;;;3.63;3.27;;;;;;;;;;5110936;28;20195;-80
2024/01/22 03:06:25;;;;;;;3.73;3.43;;;;;;;;;;5110876;28;20200;-81
2024/01/22 03:08:51;;;;;;;6.50;4.70;;;;;;;;;;5111244;28;20697;-79
2024/01/22 03:11:18;;;;;;;4.80;3.37;;;;;;;;;;5097634;28;20238;-80
2024/01/22 03:13:45;;;;;;;6.43;3.23;;;;;;;;;;5111230;28;20256;-80
2024/01/22 03:16:16;;;;;;;5.40;4.03;;;;;;;;;;5111903;28;20202;-80
2024/01/22 03:18:43;;;;;;;12.00;7.50;;;;;;;;;;5110480;28;20650;-80
2024/01/22 03:21:09;;;;;;;7.10;4.80;;;;;;;;;;5111372;28;20200;-80
2024/01/22 03:23:36;;;;;;;6.40;4.43;;;;;;;;;;5110528;28;20206;-80
2024/01/22 03:26:03;;;;;;;4.83;4.33;;;;;;;;;;5111388;28;20876;-81
2024/01/22 03:28:31;;;;;;;11.10;5.47;;;;;;;;;;5110468;28;20558;-81
2024/01/22 03:30:57;;;;;;;12.07;8.17;;;;;;;;;;5111127;28;20230;-81
2024/01/22 03:33:26;;;;;;;13.23;7.90;;;;;;;;;;5110998;28;20204;-83
2024/01/22 03:35:52;;;;;;;12.20;9.13;;;;;;;;;;5111499;28;20578;-80
2024/01/22 03:38:19;;;;;;;17.47;10.80;;;;;;;;;;5110665;28;20204;-80
2024/01/22 03:40:46;;;;;;;7.83;6.53;;;;;;;;;;5111630;28;20672;-80
2024/01/22 03:43:13;;;;;;;9.77;6.80;;;;;;;;;;5110686;28;20207;-79
2024/01/22 03:45:39;;;;;;;6.40;5.40;;;;;;;;;;5111415;28;20206;-80
2024/01/22 03:48:07;;;;;;;4.80;4.07;;;;;;;;;;5110698;28;20449;-80
2024/01/22 03:50:35;;;;;;;3.63;3.30;;;;;;;;;;5110698;28;20472;-80
2024/01/22 03:53:02;;;;;;;5.83;4.13;;;;;;;;;;5111186;28;20588;-80
2024/01/22 03:55:29;;;;;;;6.30;5.03;;;;;;;;;;5110559;28;20456;-81
2024/01/22 03:57:55;;;;;;;4.67;4.27;;;;;;;;;;5110335;28;20449;-81
2024/01/22 04:00:22;;;;;;;4.77;4.37;;;;;;;;;;5111139;28;20581;-80
2024/01/22 04:02:50;;;;;;;7.53;5.47;;;;;;;;;;5110690;28;20510;-81
2024/01/22 04:05:16;;;;;;;9.30;6.53;;;;;;;;;;5110989;28;20445;-80
2024/01/22 04:07:44;;;;;;;12.13;7.73;;;;;;;;;;5110156;28;20449;-81
2024/01/22 04:10:11;;;;;;;12.10;8.23;;;;;;;;;;5111163;28;20300;-79
2024/01/22 04:12:39;;;;;;;13.37;7.80;;;;;;;;;;5110686;28;20437;-80
2024/01/22 04:15:06;;;;;;;10.03;6.83;;;;;;;;;;5110917;28;20502;-79
2024/01/22 04:17:33;;;;;;;14.70;9.63;;;;;;;;;;5114087;28;20260;-80
2024/01/22 04:20:00;;;;;;;9.80;8.13;;;;;;;;;;5114570;28;20208;-81
2024/01/22 04:22:27;;;;;;;11.67;8.57;;;;;;;;;;5114343;28;20203;-81
2024/01/22 04:24:55;;;;;;;9.27;7.03;;;;;;;;;;5113993;28;20744;-80
2024/01/22 04:27:22;;;;;;;6.13;5.47;;;;;;;;;;5114184;28;20452;-81
2024/01/22 04:29:48;;;;;;;9.27;7.93;;;;;;;;;;5114127;28;20216;-80
2024/01/22 04:32:15;;;;;;;16.67;12.83;;;;;;;;;;5114344;28;20453;-80
2024/01/22 04:34:42;;;;;;;63.77;43.83;;;;;;;;;;5113914;28;20448;-81
2024/01/22 04:37:09;;;;;;;44.70;31.53;;;;;;;;;;5114136;28;20437;-80
2024/01/22 04:39:36;;;;;;;18.07;13.93;;;;;;;;;;5114440;28;20502;-80
2024/01/22 04:42:04;;;;;;;10.60;7.97;;;;;;;;;;5113936;28;20514;-81
2024/01/22 04:44:31;;;;;;;7.53;6.10;;;;;;;;;;5114595;28;20818;-81
2024/01/22 04:46:58;;;;;;;8.47;5.70;;;;;;;;;;5113648;28;20959;-81
2024/01/22 04:49:26;;;;;;;8.60;6.30;;;;;;;;;;5114117;28;20453;-80
2024/01/22 04:51:53;;;;;;;7.63;6.03;;;;;;;;;;5114147;28;20488;-80
2024/01/22 04:54:21;;;;;;;8.67;6.43;;;;;;;;;;5113403;28;20450;-82
2024/01/22 04:56:48;;;;;;;9.77;7.00;;;;;;;;;;5113902;28;20532;-81
2024/01/22 04:59:16;;;;;;;16.07;8.37;;;;;;;;;;5113185;28;20433;-81
2024/01/22 05:01:43;;;;;;;8.37;7.53;;;;;;;;;;5113926;28;20461;-80
2024/01/22 05:04:10;;;;;;;7.77;6.53;;;;;;;;;;5113285;28;20438;-81
2024/01/22 05:06:37;;;;;;;37.07;25.77;;;;;;;;;;5113977;28;20533;-81
2024/01/22 05:09:04;;;;;;;40.03;26.50;;;;;;;;;;5113519;28;20446;-81
2024/01/22 05:11:31;;;;;;;38.73;23.57;;;;;;;;;;5113939;28;20477;-81
2024/01/22 05:13:58;;;;;;;29.87;17.67;;;;;;;;;;5113520;28;20445;-80
2024/01/22 05:16:26;;;;;;;14.63;10.30;;;;;;;;;;5113500;28;20446;-80
2024/01/22 05:18:55;;;;;;;39.43;30.17;;;;;;;;;;5113297;28;20829;-81
2024/01/22 05:21:22;;;;;;;40.83;26.37;;;;;;;;;;5113081;28;20452;-81
2024/01/22 05:23:50;;;;;;;17.60;12.33;;;;;;;;;;5112704;28;20445;-80
2024/01/22 05:26:16;;;;;;;8.47;7.53;;;;;;;;;;5113409;28;20515;-81
2024/01/22 05:28:43;;;;;;;7.23;6.30;;;;;;;;;;5112759;28;20825;-80
2024/01/22 05:31:10;;;;;;;15.87;9.83;;;;;;;;;;5113528;28;20489;-81
2024/01/22 05:33:38;;;;;;;12.37;7.63;;;;;;;;;;5113038;28;20449;-80
2024/01/22 05:36:05;;;;;;;12.17;10.27;;;;;;;;;;5112578;28;20438;-81
2024/01/22 05:38:32;;;;;;;10.67;7.87;;;;;;;;;;5112590;28;20440;-82
2024/01/22 05:40:59;;;;;;;19.50;14.27;;;;;;;;;;5102542;28;20454;-82
2024/01/22 05:43:26;;;;;;;13.53;10.20;;;;;;;;;;5110290;28;20446;-81
2024/01/22 05:45:53;;;;;;;7.40;6.13;;;;;;;;;;5113073;28;20454;-81
2024/01/22 05:48:21;;;;;;;6.83;5.47;;;;;;;;;;5112535;28;20540;-80
2024/01/22 05:50:49;;;;;;;5.47;4.27;;;;;;;;;;5112785;28;20476;-81
2024/01/22 05:53:16;;;;;;;5.67;4.07;;;;;;;;;;5112728;28;20452;-80
2024/01/22 05:55:43;;;;;;;3.53;3.20;;;;;;;;;;5113054;28;20456;-80
2024/01/22 05:58:10;;;;;;;5.10;3.30;;;;;;;;;;5112158;28;20464;-81
2024/01/22 06:00:38;;;;;;;9.70;4.43;;;;;;;;;;5112746;28;20449;-81
2024/01/22 06:03:05;;;;;;;5.13;4.37;;;;;;;;;;5112707;28;20445;-81
2024/01/22 06:05:32;;;;;;;5.70;5.03;;;;;;;;;;5112478;28;20836;-81
2024/01/22 06:08:00;;;;;;;9.27;5.80;;;;;;;;;;5112591;28;20472;-82
2024/01/22 06:10:28;;;;;;;9.97;7.80;;;;;;;;;;5112171;28;20476;-81
2024/01/22 06:12:57;;;;;;;9.73;6.53;;;;;;;;;;5098620;28;20457;-81
2024/01/22 06:15:24;;;;;;;6.67;4.90;;;;;;;;;;5112644;28;20445;-81
2024/01/22 06:17:51;;;;;;;5.27;4.70;;;;;;;;;;5112402;28;20829;-81
2024/01/22 06:20:18;;;;;;;6.30;4.70;;;;;;;;;;5111549;28;20494;-81
2024/01/22 06:22:45;;;;;;;5.27;4.27;;;;;;;;;;5111882;28;20829;-80
2024/01/22 06:25:13;;;;;;;4.83;4.37;;;;;;;;;;5112132;28;20441;-81
2024/01/22 06:27:44;;;;;;;14.03;12.63;;;;;;;;;;5112106;28;20498;-80
2024/01/22 06:30:12;;;;;;;13.47;11.97;;;;;;;;;;5098545;28;20478;-80
2024/01/22 06:32:39;;;;;;;9.00;7.30;;;;;;;;;;5111957;28;20449;-81
2024/01/22 06:35:06;;;;;;;5.90;5.37;;;;;;;;;;5111510;28;20449;-80
2024/01/22 06:37:34;;;;;;;5.23;4.43;;;;;;;;;;5111739;28;20441;-80
2024/01/22 06:40:01;;;;;;;3.70;3.27;;;;;;;;;;5110749;28;20464;-83
2024/01/22 06:42:29;;;;;;;13.77;9.80;;;;;;;;;;5112134;28;20834;-80
2024/01/22 06:44:56;;;;;;;13.53;10.13;;;;;;;;;;5111442;28;20478;-79
2024/01/22 06:47:23;;;;;;;15.63;10.27;;;;;;;;;;5111692;28;20449;-80
2024/01/22 06:49:52;;;;;;;10.73;8.47;;;;;;;;;;5111282;28;20445;-79
2024/01/22 06:52:19;;;;;;;9.03;7.53;;;;;;;;;;5112018;28;20488;-79
2024/01/22 06:54:46;;;;;;;10.23;7.07;;;;;;;;;;5111565;28;20453;-79
2024/01/22 06:57:15;;;;;;;10.93;7.67;;;;;;;;;;5111278;28;20450;-79
2024/01/22 06:59:43;;;;;;;16.67;8.47;;;;;;;;;;5111347;28;20198;-78
2024/01/22 07:02:10;;;;;;;9.67;6.40;;;;;;;;;;5111353;28;20592;-78
2024/01/22 07:04:37;;;;;;;8.90;6.07;;;;;;;;;;5111454;28;20210;-79
2024/01/22 07:07:04;;;;;;;7.07;5.10;;;;;;;;;;5111541;28;20196;-79
2024/01/22 07:09:31;;;;;;;6.77;5.13;;;;;;;;;;5111293;28;20203;-78
2024/01/22 07:11:58;;;;;;;7.03;5.20;;;;;;;;;;5111103;28;20219;-79
2024/01/22 07:14:24;;;;;;;9.23;5.87;;;;;;;;;;5110975;28;20584;-79
2024/01/22 07:16:53;;;;;;;5.73;4.97;;;;;;;;;;5110758;28;20195;-80
2024/01/22 07:19:19;;;;;;;18.83;12.30;;;;;;;;;;5110430;28;20206;-81
2024/01/22 07:21:47;;;;;;;88.63;50.03;;;;;;;;;;5111176;28;20669;-80
2024/01/22 07:24:16;;;;;;;82.77;36.67;;;;;;;;;;5097507;28;20191;-80
2024/01/22 07:26:43;;;;;;;33.20;16.53;;;;;;;;;;5111134;28;20203;-79
2024/01/22 07:29:10;;;;;;;12.87;8.20;;;;;;;;;;5097447;28;20235;-79
2024/01/22 07:31:37;;;;;;;10.63;7.47;;;;;;;;;;5111088;28;20223;-79
2024/01/22 07:34:06;;;;;;;6.57;5.63;;;;;;;;;;5097775;28;20199;-79
2024/01/22 07:36:34;;;;;;;8.50;6.20;;;;;;;;;;5110509;28;20216;-83
2024/01/22 07:39:01;;;;;;;12.47;8.90;;;;;;;;;;5111211;28;20202;-78
2024/01/22 07:41:28;;;;;;;10.47;6.43;;;;;;;;;;5098006;28;20211;-79
2024/01/22 07:43:57;;;;;;;9.50;6.20;;;;;;;;;;5111205;28;20203;-78
2024/01/22 07:46:24;;;;;;;7.33;4.93;;;;;;;;;;5110635;28;20593;-79
2024/01/22 07:48:52;;;;;;;10.50;7.33;;;;;;;;;;5110978;28;20214;-79
2024/01/22 07:51:20;;;;;;;11.23;7.80;;;;;;;;;;5113044;28;20231;-78
2024/01/22 07:53:47;;;;;;;14.80;10.93;;;;;;;;;;5114855;28;20207;-78
2024/01/22 07:56:14;;;;;;;6.90;6.20;;;;;;;;;;5114835;28;20218;-78
2024/01/22 07:58:41;;;;;;;6.40;5.80;;;;;;;;;;5114786;28;20240;-78
2024/01/22 08:01:08;;;;;;;6.13;4.17;;;;;;;;;;5115135;28;20196;-77
2024/01/22 08:03:35;;;;;;;3.63;3.33;;;;;;;;;;5114909;28;20200;-77
2024/01/22 08:06:02;;;;;;;4.67;4.17;;;;;;;;;;5114595;28;20248;-76
2024/01/22 08:08:30;;;;;;;5.77;4.37;;;;;;;;;;5114525;28;20586;-76
2024/01/22 08:10:57;;;;;;;4.57;3.70;;;;;;;;;;5114207;28;20196;-76
2024/01/22 08:13:24;;;;;;;5.87;4.00;;;;;;;;;;5114270;28;20722;-76
2024/01/22 08:15:51;;;;;;;4.63;4.00;;;;;;;;;;5114409;28;20199;-76
2024/01/22 08:18:18;;;;;;;3.60;3.10;;;;;;;;;;5114273;28;20211;-76
2024/01/22 08:20:45;;;;;;;3.90;3.50;;;;;;;;;;5114174;28;20200;-76
2024/01/22 08:23:13;;;;;;;6.43;4.80;;;;;;;;;;5114592;28;20228;-76
2024/01/22 08:25:41;;;;;;;4.53;3.67;;;;;;;;;;5114406;28;20192;-76
2024/01/22 08:28:08;;;;;;;4.70;3.53;;;;;;;;;;5114106;28;20204;-76
2024/01/22 08:30:34;;;;;;;4.23;3.57;;;;;;;;;;5113770;28;20219;-77
2024/01/22 08:33:01;;;;;;;3.83;3.43;;;;;;;;;;5114567;28;20230;-76
2024/01/22 08:35:29;;;;;;;4.73;3.90;;;;;;;;;;5113754;28;20196;-76
2024/01/22 08:37:55;;;;;;;4.87;3.50;;;;;;;;;;5113896;28;20195;-76
2024/01/22 08:40:23;;;;;;;14.20;8.10;;;;;;;;;;5114092;28;20211;-76
2024/01/22 08:42:52;;;;;;;9.53;6.60;;;;;;;;;;5113715;28;20214;-76
2024/01/22 08:45:19;;;;;;;4.00;3.40;;;;;;;;;;5114064;28;20216;-76
2024/01/22 08:47:47;;;;;;;5.57;3.97;;;;;;;;;;5114016;28;20633;-76
2024/01/22 08:50:17;;;;;;;7.63;4.97;;;;;;;;;;5113579;28;20666;-75
2024/01/22 08:52:44;;;;;;;4.53;3.77;;;;;;;;;;5113276;28;20228;-76
2024/01/22 08:55:11;;;;;;;4.90;3.87;;;;;;;;;;5114016;28;20203;-75
2024/01/22 08:57:39;;;;;;;4.27;3.10;;;;;;;;;;5113678;28;20304;-76
2024/01/22 09:00:10;;;;;;;4.10;2.97;;;;;;;;;;5114187;28;20199;-76
2024/01/22 09:02:39;;;;;;;3.17;2.80;;;;;;;;;;5112858;28;20207;-76
2024/01/22 09:05:07;;;;;;;5.97;2.80;;;;;;;;;;5113416;28;20202;-77
2024/01/22 09:07:34;;;;;;;3.60;2.90;;;;;;;;;;5113857;28;20204;-77
2024/01/22 09:10:02;;;;;;;3.93;3.37;;;;;;;;;;5114283;28;20599;-76
2024/01/22 09:12:29;;;;;;;3.40;3.10;;;;;;;;;;5113214;28;20230;-77
2024/01/22 09:14:56;;;;;;;4.77;4.20;;;;;;;;;;5113568;28;20200;-77
2024/01/22 09:17:24;;;;;;;4.10;3.63;;;;;;;;;;5113808;28;20196;-77
2024/01/22 09:19:51;;;;;;;4.23;3.07;;;;;;;;;;5113202;28;20196;-78
2024/01/22 09:22:19;;;;;;;3.63;3.07;;;;;;;;;;5113382;28;20192;-78
2024/01/22 09:24:46;;;;;;;3.73;2.40;;;;;;;;;;5113074;28;20210;-78
2024/01/22 09:27:20;;;;;;;4.17;3.33;;;;;;;;;;5113234;28;20218;-78
2024/01/22 09:29:46;;;;;;;4.50;3.53;;;;;;;;;;5113096;28;20288;-78
2024/01/22 09:32:19;;;;;;;3.00;2.17;;;;;;;;;;5113124;28;20662;-78
2024/01/22 09:34:47;;;;;;;3.33;2.83;;;;;;;;;;5112905;28;20204;-78
2024/01/22 09:37:16;;;;;;;4.47;2.53;;;;;;;;;;5113402;28;20192;-78
2024/01/22 09:39:45;;;;;;;3.40;3.10;;;;;;;;;;5112746;28;20222;-78
2024/01/22 09:42:13;;;;;;;3.30;2.60;;;;;;;;;;5099677;28;20195;-79
2024/01/22 09:44:40;;;;;;;3.20;2.83;;;;;;;;;;5112175;28;20702;-79
2024/01/22 09:47:08;;;;;;;4.80;4.27;;;;;;;;;;5113440;28;20379;-78
2024/01/22 09:49:36;;;;;;;4.30;3.60;;;;;;;;;;5112533;28;20208;-78
2024/01/22 09:52:05;;;;;;;4.97;4.23;;;;;;;;;;5113207;28;20319;-78
2024/01/22 09:54:33;;;;;;;3.67;3.27;;;;;;;;;;5111695;28;20211;-78
2024/01/22 09:57:02;;;;;;;3.67;3.07;;;;;;;;;;5112752;28;20198;-77
2024/01/22 09:59:30;;;;;;;4.50;3.80;;;;;;;;;;5112757;28;20203;-77
2024/01/22 10:01:57;;;;;;;9.70;4.20;;;;;;;;;;5112851;28;20210;-77
2024/01/22 10:04:25;;;;;;;4.40;3.77;;;;;;;;;;5112162;28;20208;-78
2024/01/22 10:06:55;;;;;;;3.37;2.80;;;;;;;;;;5112471;28;20291;-77
2024/01/22 10:09:23;;;;;;;4.83;4.07;;;;;;;;;;5111742;28;20192;-77
2024/01/22 10:11:51;;;;;;;3.70;2.70;;;;;;;;;;5112430;28;20230;-77
2024/01/22 10:14:29;;;;;;;4.07;3.67;;;;;;;;;;5111281;28;20195;-77
2024/01/22 10:16:56;;;;;;;5.60;3.20;;;;;;;;;;5112452;28;20206;-77
2024/01/22 10:19:26;;;;;;;6.33;3.13;;;;;;;;;;5111802;28;20200;-77
2024/01/22 10:22:00;;;;;;;8.33;3.00;;;;;;;;;;5112313;28;20295;-77
2024/01/22 10:24:30;;;;;;;5.57;3.23;;;;;;;;;;5112061;28;20196;-77
2024/01/22 10:27:13;;;;;;;3.07;2.70;;;;;;;;;;5111497;28;20200;-77
2024/01/22 10:29:40;;;;;;;3.80;3.43;;;;;;;;;;5112017;28;20229;-77
2024/01/22 10:32:07;;;;;;;3.33;2.70;;;;;;;;;;5112351;28;20579;-77
2024/01/22 10:34:43;;;;;;;3.63;2.90;;;;;;;;;;5111673;28;20199;-77
2024/01/22 10:37:11;;;;;;;4.73;4.33;;;;;;;;;;5111896;28;20282;-78
2024/01/22 10:39:41;;;;;;;3.97;3.57;;;;;;;;;;5111625;28;20284;-77
2024/01/22 10:42:09;;;;;;;6.40;2.87;;;;;;;;;;5098979;28;20207;-77
2024/01/22 10:44:36;;;;;;;3.10;2.77;;;;;;;;;;5111703;28;20205;-77
2024/01/22 10:47:04;;;;;;;4.17;3.27;;;;;;;;;;5111750;28;20219;-77
2024/01/22 10:49:32;;;;;;;19.20;12.13;;;;;;;;;;5111122;28;20199;-77
2024/01/22 10:51:59;;;;;;;10.07;7.43;;;;;;;;;;5111956;28;20223;-77
2024/01/22 10:54:26;;;;;;;8.07;5.87;;;;;;;;;;5111545;28;20663;-77
2024/01/22 10:57:02;;;;;;;4.67;4.27;;;;;;;;;;5111401;28;20222;-77
2024/01/22 10:59:29;;;;;;;4.17;3.50;;;;;;;;;;5111038;28;20677;-77
2024/01/22 11:01:58;;;;;;;3.77;3.40;;;;;;;;;;5111457;28;20568;-77
2024/01/22 11:04:30;;;;;;;5.40;2.87;;;;;;;;;;5111451;28;20260;-77
2024/01/22 11:07:00;;;;;;;3.43;3.13;;;;;;;;;;5111365;28;20635;-77
2024/01/22 11:09:32;;;;;;;3.10;2.80;;;;;;;;;;5111036;28;20219;-77
2024/01/22 11:12:05;;;;;;;3.50;2.97;;;;;;;;;;5111104;28;20259;-77
2024/01/22 11:14:33;;;;;;;3.07;2.53;;;;;;;;;;5111294;28;20701;-77
2024/01/22 11:17:01;;;;;;;3.53;2.80;;;;;;;;;;5110891;28;20203;-77
2024/01/22 11:19:28;;;;;;;2.63;2.43;;;;;;;;;;5111199;28;20227;-77
2024/01/22 11:21:56;;;;;;;3.87;2.70;;;;;;;;;;5110754;28;20208;-77
2024/01/22 11:24:23;;;;;;;2.93;2.73;;;;;;;;;;5110939;28;20203;-77
2024/01/22 11:27:05;;;;;;;2.80;2.60;;;;;;;;;;5110938;28;20215;-77
2024/01/22 11:29:34;;;;;;;32.20;22.60;;;;;;;;;;5110662;28;20259;-77
2024/01/22 11:32:24;;;;;;;15.67;12.40;;;;;;;;;;5110742;28;20725;-76
2024/01/22 11:34:52;;;;;;;8.80;6.67;;;;;;;;;;5110709;28;20200;-77
2024/01/22 11:37:34;;;;;;;6.80;6.10;;;;;;;;;;5098223;28;20203;-77
2024/01/22 11:40:00;;;;;;;6.23;5.63;;;;;;;;;;5110807;28;20626;-76
2024/01/22 11:42:29;;;;;;;7.03;5.77;;;;;;;;;;5111214;28;20211;-77
2024/01/22 11:44:58;;;;;;;11.00;6.97;;;;;;;;;;5110760;28;20680;-74
2024/01/22 11:47:25;;;;;;;7.93;7.13;;;;;;;;;;5110864;28;20669;-76
2024/01/22 11:50:01;;;;;;;4.87;4.37;;;;;;;;;;5110709;28;20195;-76
2024/01/22 11:52:28;;;;;;;5.57;3.93;;;;;;;;;;5110868;28;20310;-77
2024/01/22 11:54:59;;;;;;;2.73;2.53;;;;;;;;;;5110734;28;20204;-77
2024/01/22 11:57:26;;;;;;;22.13;11.83;;;;;;;;;;5111341;28;20199;-77
2024/01/22 12:00:04;;;;;;;12.17;6.30;;;;;;;;;;5110208;28;20202;-77
2024/01/22 12:02:31;;;;;;;7.93;6.03;;;;;;;;;;5110689;28;20202;-77
2024/01/22 12:05:06;;;;;;;10.40;7.03;;;;;;;;;;5111102;28;20233;-76
2024/01/22 12:07:33;;;;;;;5.00;4.50;;;;;;;;;;5107630;28;20776;-77
2024/01/22 12:10:00;;;;;;;4.47;4.07;;;;;;;;;;5100172;28;20286;-76
2024/01/22 12:12:27;;;;;;;4.93;3.47;;;;;;;;;;5110585;28;20232;-76
2024/01/22 12:14:58;;;;;;;3.23;2.80;;;;;;;;;;5110532;28;20199;-76
2024/01/22 12:17:27;;;;;;;4.50;3.90;;;;;;;;;;5110113;28;20276;-76
2024/01/22 12:19:57;;;;;;;3.80;3.50;;;;;;;;;;5111009;28;20200;-77
2024/01/22 12:22:24;;;;;;;6.17;3.47;;;;;;;;;;5110219;28;20203;-77
2024/01/22 12:25:08;;;;;;;4.50;4.10;;;;;;;;;;5110923;28;20212;-76
2024/01/22 12:27:36;;;;;;;7.77;4.57;;;;;;;;;;5096867;28;20208;-77
2024/01/22 12:30:05;;;;;;;6.07;3.40;;;;;;;;;;5110856;28;20251;-77
2024/01/22 12:32:35;;;;;;;5.93;3.90;;;;;;;;;;5110384;28;20702;-77
2024/01/22 12:35:02;;;;;;;3.27;3.03;;;;;;;;;;5109839;28;20204;-77
2024/01/22 12:37:29;;;;;;;2.40;2.20;;;;;;;;;;5112619;28;20191;-77
2024/01/22 12:40:14;;;;;;;3.70;3.37;;;;;;;;;;5114028;28;20203;-76
2024/01/22 12:42:43;;;;;;;7.57;5.33;;;;;;;;;;5114552;28;20196;-77
2024/01/22 12:45:14;;;;;;;8.93;5.53;;;;;;;;;;5114437;28;20227;-77
2024/01/22 12:47:42;;;;;;;5.63;5.07;;;;;;;;;;5114433;28;20203;-77
2024/01/22 12:50:10;;;;;;;12.67;8.50;;;;;;;;;;5113958;28;20253;-76
2024/01/22 12:52:38;;;;;;;6.23;5.43;;;;;;;;;;5113836;28;20215;-76
2024/01/22 12:55:06;;;;;;;5.87;4.40;;;;;;;;;;5100257;28;20207;-76
2024/01/22 12:57:33;;;;;;;7.13;6.13;;;;;;;;;;5113449;28;20207;-76
2024/01/22 13:00:01;;;;;;;6.13;4.97;;;;;;;;;;5114023;28;20253;-76
2024/01/22 13:02:28;;;;;;;12.50;7.70;;;;;;;;;;5113508;28;20203;-76
2024/01/22 13:04:56;;;;;;;8.77;6.47;;;;;;;;;;5113652;28;20199;-76
2024/01/22 13:07:23;;;;;;;7.03;5.57;;;;;;;;;;5113456;28;20196;-76
2024/01/22 13:09:50;;;;;;;7.83;4.63;;;;;;;;;;5113532;28;20211;-76
2024/01/22 13:12:17;;;;;;;8.37;6.07;;;;;;;;;;5114014;28;20195;-76
2024/01/22 13:14:44;;;;;;;4.97;4.47;;;;;;;;;;5113713;28;20227;-76
2024/01/22 13:17:11;;;;;;;5.63;5.10;;;;;;;;;;5113618;28;20254;-76
2024/01/22 13:19:38;;;;;;;7.37;5.07;;;;;;;;;;5113317;28;20594;-76
2024/01/22 13:22:06;;;;;;;5.93;4.57;;;;;;;;;;5113042;28;20203;-76
2024/01/22 13:24:33;;;;;;;5.57;5.03;;;;;;;;;;5112956;28;20203;-76
2024/01/22 13:27:00;;;;;;;8.20;4.77;;;;;;;;;;5112919;28;20203;-76
2024/01/22 13:29:27;;;;;;;6.03;5.43;;;;;;;;;;5113133;28;20223;-76
2024/01/22 13:31:57;;;;;;;5.03;4.53;;;;;;;;;;5112860;28;20686;-76
2024/01/22 13:34:26;;;;;;;6.30;5.13;;;;;;;;;;5113205;28;20223;-76
2024/01/22 13:36:55;;;;;;;8.67;5.40;;;;;;;;;;5112886;28;20252;-76
2024/01/22 13:39:24;;;;;;;6.50;5.50;;;;;;;;;;5113077;28;20215;-76
2024/01/22 13:41:50;;;;;;;4.73;4.30;;;;;;;;;;5113040;28;20658;-76
2024/01/22 13:44:18;;;;;;;6.60;5.20;;;;;;;;;;5113517;28;20195;-76
2024/01/22 13:46:45;;;;;;;9.13;6.07;;;;;;;;;;5112175;28;20192;-76
2024/01/22 13:49:11;;;;;;;25.37;14.67;;;;;;;;;;5112901;28;20232;-76
2024/01/22 13:51:38;;;;;;;7.13;5.57;;;;;;;;;;5112768;28;20208;-76
2024/01/22 13:54:06;;;;;;;13.37;8.70;;;;;;;;;;5112338;28;20305;-76
2024/01/22 13:56:35;;;;;;;44.97;20.07;;;;;;;;;;5112324;28;20293;-76
2024/01/22 13:59:03;;;;;;;22.93;12.00;;;;;;;;;;5112672;28;20206;-76
2024/01/22 14:01:30;;;;;;;35.07;18.40;;;;;;;;;;5112348;28;20211;-76
2024/01/22 14:03:56;;;;;;;24.60;13.80;;;;;;;;;;5112743;28;20207;-77
2024/01/22 14:06:23;;;;;;;19.40;11.73;;;;;;;;;;5112274;28;20678;-76
2024/01/22 14:08:51;;;;;;;15.40;10.40;;;;;;;;;;5112084;28;20203;-77
2024/01/22 14:11:18;;;;;;;16.63;9.93;;;;;;;;;;5112776;28;20210;-76
2024/01/22 14:13:47;;;;;;;10.47;6.60;;;;;;;;;;5112124;28;20223;-77
2024/01/22 14:16:16;;;;;;;10.10;7.93;;;;;;;;;;5112545;28;20203;-76
2024/01/22 14:18:43;;;;;;;13.13;9.03;;;;;;;;;;5111410;28;20204;-77
2024/01/22 14:21:10;;;;;;;18.40;11.03;;;;;;;;;;5112340;28;20211;-77
2024/01/22 14:23:37;;;;;;;22.03;14.17;;;;;;;;;;5111498;28;20208;-77
2024/01/22 14:26:04;;;;;;;20.07;13.40;;;;;;;;;;5112307;28;20191;-77
2024/01/22 14:28:31;;;;;;;15.20;12.93;;;;;;;;;;5111169;28;20574;-77
2024/01/22 14:31:01;;;;;;;9.00;8.10;;;;;;;;;;5111723;28;20570;-77
2024/01/22 14:33:27;;;;;;;12.50;11.17;;;;;;;;;;5111786;28;20727;-77
2024/01/22 14:35:57;;;;;;;9.03;7.40;;;;;;;;;;5111849;28;20207;-77
2024/01/22 14:38:25;;;;;;;9.23;7.27;;;;;;;;;;5111446;28;20227;-77
2024/01/22 14:40:52;;;;;;;9.47;7.43;;;;;;;;;;5111653;28;20202;-77
2024/01/22 14:43:19;;;;;;;9.27;5.50;;;;;;;;;;5111898;28;20211;-76